West Stafford, Connecticut
Current Conditions -  °F | °C
As of 8:52 PM on Thursday 20 Nov 2014 (Local Time) from KIJD Reporting Station
Clear Clear  
Wind Chill: 26°   Ceiling: Unl
Heat Index: 33°   Visibility: 10mi
Dew Point: 19°   Wind: 8mph
Humidity: 56%   Direction: 340°NNW
Pressure: 29.92"   Gusts: NA
Location:  41.9885°N, 72.2592°W
Report Text: KIJD 210152Z AUTO 34007KT 10SM CLR 01/M07 A2992 RMK AO2 SLP133 T00061072
Loading
Personal Weather Stations






























Interactive Weather Map New forecast layout! Learn more

10-Day Weather Forecast

Advertisements
Track Severe Weather on mobile